sensor_id;sensor_type;location;lat;lon;timestamp;temperature;humidity
75500;DHT22;64076;51.466;7.260;2022-12-10T00:01:25;19.20;31.30
75500;DHT22;64076;51.466;7.260;2022-12-10T00:03:51;19.20;31.40
75500;DHT22;64076;51.466;7.260;2022-12-10T00:06:20;19.20;31.40
75500;DHT22;64076;51.466;7.260;2022-12-10T00:08:46;19.20;31.40
75500;DHT22;64076;51.466;7.260;2022-12-10T00:11:13;19.20;31.40
75500;DHT22;64076;51.466;7.260;2022-12-10T00:13:40;19.20;31.40
75500;DHT22;64076;51.466;7.260;2022-12-10T00:16:08;19.20;31.40
75500;DHT22;64076;51.466;7.260;2022-12-10T00:18:35;19.20;31.40
75500;DHT22;64076;51.466;7.260;2022-12-10T00:21:05;19.20;31.40
75500;DHT22;64076;51.466;7.260;2022-12-10T00:23:32;19.20;31.40
75500;DHT22;64076;51.466;7.260;2022-12-10T00:26:12;19.20;31.40
75500;DHT22;64076;51.466;7.260;2022-12-10T00:28:39;19.20;31.40
75500;DHT22;64076;51.466;7.260;2022-12-10T00:31:17;19.20;31.40
75500;DHT22;64076;51.466;7.260;2022-12-10T00:33:44;19.20;31.40
75500;DHT22;64076;51.466;7.260;2022-12-10T00:36:20;19.20;31.40
75500;DHT22;64076;51.466;7.260;2022-12-10T00:38:46;19.20;31.40
75500;DHT22;64076;51.466;7.260;2022-12-10T00:41:12;19.20;31.40
75500;DHT22;64076;51.466;7.260;2022-12-10T00:43:39;19.20;31.40
75500;DHT22;64076;51.466;7.260;2022-12-10T00:46:05;19.20;31.40
75500;DHT22;64076;51.466;7.260;2022-12-10T00:48:31;19.20;31.40
75500;DHT22;64076;51.466;7.260;2022-12-10T00:51:06;19.20;31.40
75500;DHT22;64076;51.466;7.260;2022-12-10T00:53:33;19.20;31.40
75500;DHT22;64076;51.466;7.260;2022-12-10T00:55:59;19.20;31.30
75500;DHT22;64076;51.466;7.260;2022-12-10T00:58:29;19.20;31.30
75500;DHT22;64076;51.466;7.260;2022-12-10T01:01:13;19.20;31.30
75500;DHT22;64076;51.466;7.260;2022-12-10T01:03:40;19.20;31.30
75500;DHT22;64076;51.466;7.260;2022-12-10T01:06:30;19.20;31.40
75500;DHT22;64076;51.466;7.260;2022-12-10T01:08:58;19.20;31.30
75500;DHT22;64076;51.466;7.260;2022-12-10T01:11:28;19.20;31.30
75500;DHT22;64076;51.466;7.260;2022-12-10T01:13:54;19.10;31.30
75500;DHT22;64076;51.466;7.260;2022-12-10T01:16:23;19.10;31.30
75500;DHT22;64076;51.466;7.260;2022-12-10T01:18:49;19.10;31.30
75500;DHT22;64076;51.466;7.260;2022-12-10T01:21:17;19.10;31.30
75500;DHT22;64076;51.466;7.260;2022-12-10T01:23:45;19.10;31.30
75500;DHT22;64076;51.466;7.260;2022-12-10T01:26:14;19.10;31.30
75500;DHT22;64076;51.466;7.260;2022-12-10T01:28:41;19.10;31.30
75500;DHT22;64076;51.466;7.260;2022-12-10T01:31:12;19.10;31.30
75500;DHT22;64076;51.466;7.260;2022-12-10T01:33:39;19.10;31.30
75500;DHT22;64076;51.466;7.260;2022-12-10T01:36:07;19.10;31.30
75500;DHT22;64076;51.466;7.260;2022-12-10T01:38:33;19.10;31.30
75500;DHT22;64076;51.466;7.260;2022-12-10T01:41:00;19.10;31.30
75500;DHT22;64076;51.466;7.260;2022-12-10T01:43:26;19.10;31.30
75500;DHT22;64076;51.466;7.260;2022-12-10T01:45:52;19.10;31.30
75500;DHT22;64076;51.466;7.260;2022-12-10T01:48:18;19.10;31.30
75500;DHT22;64076;51.466;7.260;2022-12-10T01:50:44;19.10;31.30
75500;DHT22;64076;51.466;7.260;2022-12-10T01:53:11;19.10;31.30
75500;DHT22;64076;51.466;7.260;2022-12-10T01:55:47;19.10;31.30
75500;DHT22;64076;51.466;7.260;2022-12-10T01:58:15;19.10;31.30
75500;DHT22;64076;51.466;7.260;2022-12-10T02:00:47;19.10;31.30
75500;DHT22;64076;51.466;7.260;2022-12-10T02:03:21;19.10;31.30
75500;DHT22;64076;51.466;7.260;2022-12-10T02:05:59;19.10;31.30
75500;DHT22;64076;51.466;7.260;2022-12-10T02:08:33;19.10;31.30
75500;DHT22;64076;51.466;7.260;2022-12-10T02:11:14;19.10;31.30
75500;DHT22;64076;51.466;7.260;2022-12-10T02:13:51;19.10;31.30
75500;DHT22;64076;51.466;7.260;2022-12-10T02:16:36;19.10;31.30
75500;DHT22;64076;51.466;7.260;2022-12-10T02:22:02;19.10;31.30
75500;DHT22;64076;51.466;7.260;2022-12-10T02:24:34;19.10;31.30
75500;DHT22;64076;51.466;7.260;2022-12-10T02:29:52;19.10;31.30
75500;DHT22;64076;51.466;7.260;2022-12-10T02:32:29;19.10;31.30
75500;DHT22;64076;51.466;7.260;2022-12-10T02:34:58;19.00;31.30
75500;DHT22;64076;51.466;7.260;2022-12-10T02:37:35;19.00;31.30
75500;DHT22;64076;51.466;7.260;2022-12-10T02:40:06;19.00;31.30
75500;DHT22;64076;51.466;7.260;2022-12-10T02:42:35;19.00;31.30
75500;DHT22;64076;51.466;7.260;2022-12-10T02:45:03;19.00;31.30
75500;DHT22;64076;51.466;7.260;2022-12-10T02:47:29;19.00;31.30
75500;DHT22;64076;51.466;7.260;2022-12-10T02:49:56;19.00;31.30
75500;DHT22;64076;51.466;7.260;2022-12-10T02:52:24;19.00;31.30
75500;DHT22;64076;51.466;7.260;2022-12-10T02:54:50;19.00;31.30
75500;DHT22;64076;51.466;7.260;2022-12-10T02:57:41;19.00;31.30
75500;DHT22;64076;51.466;7.260;2022-12-10T03:00:17;19.00;31.30
75500;DHT22;64076;51.466;7.260;2022-12-10T03:02:59;19.00;31.20
75500;DHT22;64076;51.466;7.260;2022-12-10T03:05:56;19.00;31.30
75500;DHT22;64076;51.466;7.260;2022-12-10T03:08:28;19.00;31.30
75500;DHT22;64076;51.466;7.260;2022-12-10T03:11:16;19.00;31.30
75500;DHT22;64076;51.466;7.260;2022-12-10T03:13:53;19.00;31.20
75500;DHT22;64076;51.466;7.260;2022-12-10T03:16:21;19.00;31.30
75500;DHT22;64076;51.466;7.260;2022-12-10T03:18:52;19.00;31.20
75500;DHT22;64076;51.466;7.260;2022-12-10T03:21:20;19.00;31.20
75500;DHT22;64076;51.466;7.260;2022-12-10T03:23:48;19.00;31.20
75500;DHT22;64076;51.466;7.260;2022-12-10T03:26:16;19.00;31.20
75500;DHT22;64076;51.466;7.260;2022-12-10T03:28:48;19.00;31.20
75500;DHT22;64076;51.466;7.260;2022-12-10T03:31:15;19.00;31.20
75500;DHT22;64076;51.466;7.260;2022-12-10T03:33:42;19.00;31.10
75500;DHT22;64076;51.466;7.260;2022-12-10T03:36:08;19.00;31.10
75500;DHT22;64076;51.466;7.260;2022-12-10T03:38:35;19.00;31.10
75500;DHT22;64076;51.466;7.260;2022-12-10T03:41:01;19.00;31.10
75500;DHT22;64076;51.466;7.260;2022-12-10T03:43:27;19.00;31.00
75500;DHT22;64076;51.466;7.260;2022-12-10T03:45:53;19.00;31.00
75500;DHT22;64076;51.466;7.260;2022-12-10T03:48:18;19.00;31.00
75500;DHT22;64076;51.466;7.260;2022-12-10T03:50:44;19.00;31.00
75500;DHT22;64076;51.466;7.260;2022-12-10T03:53:10;19.00;31.00
75500;DHT22;64076;51.466;7.260;2022-12-10T03:55:35;19.00;30.90
75500;DHT22;64076;51.466;7.260;2022-12-10T03:58:01;19.00;30.90
75500;DHT22;64076;51.466;7.260;2022-12-10T04:00:26;19.00;30.90
75500;DHT22;64076;51.466;7.260;2022-12-10T04:02:52;19.00;30.90
75500;DHT22;64076;51.466;7.260;2022-12-10T04:05:17;19.00;30.90
75500;DHT22;64076;51.466;7.260;2022-12-10T04:07:43;19.00;30.80
75500;DHT22;64076;51.466;7.260;2022-12-10T04:10:08;19.00;30.90
75500;DHT22;64076;51.466;7.260;2022-12-10T04:12:34;19.00;30.80
75500;DHT22;64076;51.466;7.260;2022-12-10T04:15:00;19.00;30.70
75500;DHT22;64076;51.466;7.260;2022-12-10T04:17:44;19.00;30.70
75500;DHT22;64076;51.466;7.260;2022-12-10T04:20:10;19.00;30.70
75500;DHT22;64076;51.466;7.260;2022-12-10T04:22:56;18.90;30.70
75500;DHT22;64076;51.466;7.260;2022-12-10T04:25:40;18.90;30.70
75500;DHT22;64076;51.466;7.260;2022-12-10T04:28:44;18.90;30.70
75500;DHT22;64076;51.466;7.260;2022-12-10T04:31:10;18.90;30.60
75500;DHT22;64076;51.466;7.260;2022-12-10T04:33:35;18.90;30.60
75500;DHT22;64076;51.466;7.260;2022-12-10T04:36:01;18.90;30.60
75500;DHT22;64076;51.466;7.260;2022-12-10T04:38:26;18.90;30.60
75500;DHT22;64076;51.466;7.260;2022-12-10T04:40:52;19.00;30.60
75500;DHT22;64076;51.466;7.260;2022-12-10T04:43:17;18.90;30.60
75500;DHT22;64076;51.466;7.260;2022-12-10T04:45:43;18.90;30.50
75500;DHT22;64076;51.466;7.260;2022-12-10T04:48:08;18.90;30.50
75500;DHT22;64076;51.466;7.260;2022-12-10T04:50:34;18.90;30.50
75500;DHT22;64076;51.466;7.260;2022-12-10T04:53:00;18.90;30.50
75500;DHT22;64076;51.466;7.260;2022-12-10T04:55:25;18.90;30.40
75500;DHT22;64076;51.466;7.260;2022-12-10T04:57:51;18.90;30.40
75500;DHT22;64076;51.466;7.260;2022-12-10T05:00:17;18.90;30.40
75500;DHT22;64076;51.466;7.260;2022-12-10T05:02:42;18.90;30.30
75500;DHT22;64076;51.466;7.260;2022-12-10T05:05:08;18.90;30.30
75500;DHT22;64076;51.466;7.260;2022-12-10T05:07:33;18.90;30.30
75500;DHT22;64076;51.466;7.260;2022-12-10T05:09:59;18.90;30.30
75500;DHT22;64076;51.466;7.260;2022-12-10T05:12:24;18.90;30.30
75500;DHT22;64076;51.466;7.260;2022-12-10T05:14:50;18.90;30.30
75500;DHT22;64076;51.466;7.260;2022-12-10T05:17:15;18.90;30.20
75500;DHT22;64076;51.466;7.260;2022-12-10T05:19:41;18.90;30.20
75500;DHT22;64076;51.466;7.260;2022-12-10T05:22:07;18.90;30.20
75500;DHT22;64076;51.466;7.260;2022-12-10T05:24:52;18.90;30.20
75500;DHT22;64076;51.466;7.260;2022-12-10T05:27:18;18.90;30.20
75500;DHT22;64076;51.466;7.260;2022-12-10T05:29:43;18.90;30.10
75500;DHT22;64076;51.466;7.260;2022-12-10T05:32:09;18.90;30.10
75500;DHT22;64076;51.466;7.260;2022-12-10T05:34:34;18.90;30.10
75500;DHT22;64076;51.466;7.260;2022-12-10T05:37:00;18.90;30.10
75500;DHT22;64076;51.466;7.260;2022-12-10T05:39:26;18.90;30.10
75500;DHT22;64076;51.466;7.260;2022-12-10T05:41:51;18.90;30.10
75500;DHT22;64076;51.466;7.260;2022-12-10T05:44:17;18.90;30.00
75500;DHT22;64076;51.466;7.260;2022-12-10T05:46:42;18.80;30.00
75500;DHT22;64076;51.466;7.260;2022-12-10T05:49:08;18.80;30.00
75500;DHT22;64076;51.466;7.260;2022-12-10T05:51:36;18.80;30.00
75500;DHT22;64076;51.466;7.260;2022-12-10T05:54:02;18.80;29.90
75500;DHT22;64076;51.466;7.260;2022-12-10T05:56:29;18.80;29.90
75500;DHT22;64076;51.466;7.260;2022-12-10T05:58:58;18.80;29.90
75500;DHT22;64076;51.466;7.260;2022-12-10T06:01:26;18.90;29.90
75500;DHT22;64076;51.466;7.260;2022-12-10T06:03:56;18.90;29.90
75500;DHT22;64076;51.466;7.260;2022-12-10T06:06:27;18.90;29.90
75500;DHT22;64076;51.466;7.260;2022-12-10T06:08:54;18.90;29.80
75500;DHT22;64076;51.466;7.260;2022-12-10T06:11:20;18.80;29.80
75500;DHT22;64076;51.466;7.260;2022-12-10T06:13:46;18.90;29.70
75500;DHT22;64076;51.466;7.260;2022-12-10T06:16:13;18.80;29.70
75500;DHT22;64076;51.466;7.260;2022-12-10T06:18:39;18.70;29.40
75500;DHT22;64076;51.466;7.260;2022-12-10T06:21:14;18.70;29.40
75500;DHT22;64076;51.466;7.260;2022-12-10T06:23:41;18.80;29.20
75500;DHT22;64076;51.466;7.260;2022-12-10T06:26:09;18.90;29.10
75500;DHT22;64076;51.466;7.260;2022-12-10T06:28:35;18.90;28.90
75500;DHT22;64076;51.466;7.260;2022-12-10T06:31:01;19.00;28.80
75500;DHT22;64076;51.466;7.260;2022-12-10T06:33:26;19.00;28.70
75500;DHT22;64076;51.466;7.260;2022-12-10T06:35:52;19.10;28.60
75500;DHT22;64076;51.466;7.260;2022-12-10T06:38:18;19.10;28.50
75500;DHT22;64076;51.466;7.260;2022-12-10T06:40:43;19.20;28.50
75500;DHT22;64076;51.466;7.260;2022-12-10T06:43:09;19.20;28.40
75500;DHT22;64076;51.466;7.260;2022-12-10T06:45:39;19.20;28.30
75500;DHT22;64076;51.466;7.260;2022-12-10T06:48:05;19.20;28.30
75500;DHT22;64076;51.466;7.260;2022-12-10T06:50:30;19.20;28.30
75500;DHT22;64076;51.466;7.260;2022-12-10T06:52:56;19.30;28.20
75500;DHT22;64076;51.466;7.260;2022-12-10T06:55:22;19.30;28.10
75500;DHT22;64076;51.466;7.260;2022-12-10T06:57:51;19.30;28.10
75500;DHT22;64076;51.466;7.260;2022-12-10T07:00:16;19.30;28.10
75500;DHT22;64076;51.466;7.260;2022-12-10T07:02:42;19.30;28.10
75500;DHT22;64076;51.466;7.260;2022-12-10T07:05:08;19.30;28.00
75500;DHT22;64076;51.466;7.260;2022-12-10T07:07:35;19.30;28.00
75500;DHT22;64076;51.466;7.260;2022-12-10T07:10:00;19.40;28.00
75500;DHT22;64076;51.466;7.260;2022-12-10T07:12:26;19.40;27.90
75500;DHT22;64076;51.466;7.260;2022-12-10T07:14:52;19.40;27.90
75500;DHT22;64076;51.466;7.260;2022-12-10T07:17:18;19.40;27.90
75500;DHT22;64076;51.466;7.260;2022-12-10T07:19:43;19.40;27.80
75500;DHT22;64076;51.466;7.260;2022-12-10T07:22:09;19.40;27.80
75500;DHT22;64076;51.466;7.260;2022-12-10T07:24:35;19.40;27.80
75500;DHT22;64076;51.466;7.260;2022-12-10T07:27:07;19.40;27.80
75500;DHT22;64076;51.466;7.260;2022-12-10T07:29:33;19.40;27.80
75500;DHT22;64076;51.466;7.260;2022-12-10T07:31:59;19.40;27.80
75500;DHT22;64076;51.466;7.260;2022-12-10T07:34:24;19.40;27.80
75500;DHT22;64076;51.466;7.260;2022-12-10T07:36:50;19.40;27.80
75500;DHT22;64076;51.466;7.260;2022-12-10T07:39:16;19.40;27.70
75500;DHT22;64076;51.466;7.260;2022-12-10T07:41:48;19.40;27.70
75500;DHT22;64076;51.466;7.260;2022-12-10T07:44:16;19.40;27.80
75500;DHT22;64076;51.466;7.260;2022-12-10T07:46:44;19.50;27.80
75500;DHT22;64076;51.466;7.260;2022-12-10T07:49:09;19.50;27.70
75500;DHT22;64076;51.466;7.260;2022-12-10T07:51:35;19.50;27.70
75500;DHT22;64076;51.466;7.260;2022-12-10T07:54:01;19.50;27.70
75500;DHT22;64076;51.466;7.260;2022-12-10T07:56:26;19.50;27.70
75500;DHT22;64076;51.466;7.260;2022-12-10T07:58:52;19.50;27.70
75500;DHT22;64076;51.466;7.260;2022-12-10T08:01:24;19.50;27.70
75500;DHT22;64076;51.466;7.260;2022-12-10T08:03:50;19.60;27.70
75500;DHT22;64076;51.466;7.260;2022-12-10T08:06:18;19.60;27.70
75500;DHT22;64076;51.466;7.260;2022-12-10T08:08:44;19.60;27.70
75500;DHT22;64076;51.466;7.260;2022-12-10T08:11:11;19.60;27.70
75500;DHT22;64076;51.466;7.260;2022-12-10T08:13:38;19.60;27.70
75500;DHT22;64076;51.466;7.260;2022-12-10T08:16:10;19.60;27.70
75500;DHT22;64076;51.466;7.260;2022-12-10T08:18:36;19.60;27.70
75500;DHT22;64076;51.466;7.260;2022-12-10T08:21:10;19.60;27.70
75500;DHT22;64076;51.466;7.260;2022-12-10T08:23:36;19.70;27.70
75500;DHT22;64076;51.466;7.260;2022-12-10T08:26:07;19.70;27.70
75500;DHT22;64076;51.466;7.260;2022-12-10T08:28:33;19.70;27.70
75500;DHT22;64076;51.466;7.260;2022-12-10T08:30:59;19.70;27.70
75500;DHT22;64076;51.466;7.260;2022-12-10T08:33:25;19.70;27.70
75500;DHT22;64076;51.466;7.260;2022-12-10T08:35:50;19.70;27.70
75500;DHT22;64076;51.466;7.260;2022-12-10T08:38:16;19.70;27.70
75500;DHT22;64076;51.466;7.260;2022-12-10T08:40:42;19.70;27.70
75500;DHT22;64076;51.466;7.260;2022-12-10T08:43:08;19.70;27.70
75500;DHT22;64076;51.466;7.260;2022-12-10T08:45:34;19.80;27.70
75500;DHT22;64076;51.466;7.260;2022-12-10T08:48:02;19.80;27.80
75500;DHT22;64076;51.466;7.260;2022-12-10T08:50:28;19.80;27.80
75500;DHT22;64076;51.466;7.260;2022-12-10T08:52:54;19.80;27.80
75500;DHT22;64076;51.466;7.260;2022-12-10T08:55:19;19.80;27.90
75500;DHT22;64076;51.466;7.260;2022-12-10T08:57:45;19.80;27.90
75500;DHT22;64076;51.466;7.260;2022-12-10T09:00:12;19.80;27.90
75500;DHT22;64076;51.466;7.260;2022-12-10T09:02:38;19.80;27.90
75500;DHT22;64076;51.466;7.260;2022-12-10T09:05:04;19.80;28.00
75500;DHT22;64076;51.466;7.260;2022-12-10T09:07:30;19.90;28.00
75500;DHT22;64076;51.466;7.260;2022-12-10T09:09:56;19.90;28.00
75500;DHT22;64076;51.466;7.260;2022-12-10T09:12:21;19.90;28.00
75500;DHT22;64076;51.466;7.260;2022-12-10T09:14:47;19.90;28.10
75500;DHT22;64076;51.466;7.260;2022-12-10T09:17:12;19.90;28.10
75500;DHT22;64076;51.466;7.260;2022-12-10T09:19:38;19.90;28.10
75500;DHT22;64076;51.466;7.260;2022-12-10T09:22:03;19.90;28.10
75500;DHT22;64076;51.466;7.260;2022-12-10T09:24:29;19.90;28.20
75500;DHT22;64076;51.466;7.260;2022-12-10T09:26:54;19.90;28.10
75500;DHT22;64076;51.466;7.260;2022-12-10T09:29:20;19.90;28.10
75500;DHT22;64076;51.466;7.260;2022-12-10T09:31:50;19.90;28.20
75500;DHT22;64076;51.466;7.260;2022-12-10T09:34:16;19.90;28.10
75500;DHT22;64076;51.466;7.260;2022-12-10T09:36:41;19.90;28.20
75500;DHT22;64076;51.466;7.260;2022-12-10T09:39:07;19.90;28.20
75500;DHT22;64076;51.466;7.260;2022-12-10T09:47:08;19.90;28.20
75500;DHT22;64076;51.466;7.260;2022-12-10T09:52:37;19.90;28.20
75500;DHT22;64076;51.466;7.260;2022-12-10T09:55:12;19.90;28.20
75500;DHT22;64076;51.466;7.260;2022-12-10T09:57:42;19.90;28.20
75500;DHT22;64076;51.466;7.260;2022-12-10T10:00:46;19.90;28.10
75500;DHT22;64076;51.466;7.260;2022-12-10T10:03:15;19.90;28.10
75500;DHT22;64076;51.466;7.260;2022-12-10T10:05:45;19.90;28.10
75500;DHT22;64076;51.466;7.260;2022-12-10T10:09:00;19.90;28.10
75500;DHT22;64076;51.466;7.260;2022-12-10T10:11:02;19.90;28.10
75500;DHT22;64076;51.466;7.260;2022-12-10T10:16:50;20.00;28.20
75500;DHT22;64076;51.466;7.260;2022-12-10T10:19:29;20.00;28.10
75500;DHT22;64076;51.466;7.260;2022-12-10T10:21:56;19.90;28.20
75500;DHT22;64076;51.466;7.260;2022-12-10T10:24:59;20.00;28.20
75500;DHT22;64076;51.466;7.260;2022-12-10T10:29:50;20.00;28.20
75500;DHT22;64076;51.466;7.260;2022-12-10T10:32:22;19.90;28.10
75500;DHT22;64076;51.466;7.260;2022-12-10T10:34:57;20.00;28.20
75500;DHT22;64076;51.466;7.260;2022-12-10T10:37:29;20.00;28.10
75500;DHT22;64076;51.466;7.260;2022-12-10T10:39:56;20.00;28.10
75500;DHT22;64076;51.466;7.260;2022-12-10T10:44:58;20.00;28.20
75500;DHT22;64076;51.466;7.260;2022-12-10T10:47:32;20.00;28.10
75500;DHT22;64076;51.466;7.260;2022-12-10T10:49:58;20.00;28.20
75500;DHT22;64076;51.466;7.260;2022-12-10T10:52:35;20.00;28.10
75500;DHT22;64076;51.466;7.260;2022-12-10T10:55:01;20.00;28.20
75500;DHT22;64076;51.466;7.260;2022-12-10T10:57:35;20.00;28.20
75500;DHT22;64076;51.466;7.260;2022-12-10T11:00:22;20.00;28.20
75500;DHT22;64076;51.466;7.260;2022-12-10T11:02:48;20.00;28.20
75500;DHT22;64076;51.466;7.260;2022-12-10T11:05:25;20.00;28.20
75500;DHT22;64076;51.466;7.260;2022-12-10T11:08:02;20.00;28.20
75500;DHT22;64076;51.466;7.260;2022-12-10T11:10:29;20.00;28.20
75500;DHT22;64076;51.466;7.260;2022-12-10T11:13:05;20.00;28.30
75500;DHT22;64076;51.466;7.260;2022-12-10T11:15:35;20.00;28.30
75500;DHT22;64076;51.466;7.260;2022-12-10T11:18:02;20.00;28.30
75500;DHT22;64076;51.466;7.260;2022-12-10T11:20:31;20.00;28.30
75500;DHT22;64076;51.466;7.260;2022-12-10T11:23:07;20.00;28.30
75500;DHT22;64076;51.466;7.260;2022-12-10T11:25:54;20.00;28.30
75500;DHT22;64076;51.466;7.260;2022-12-10T11:31:03;20.00;28.30
75500;DHT22;64076;51.466;7.260;2022-12-10T11:33:50;20.00;28.30
75500;DHT22;64076;51.466;7.260;2022-12-10T11:36:43;20.00;28.30
75500;DHT22;64076;51.466;7.260;2022-12-10T11:39:42;20.00;28.40
75500;DHT22;64076;51.466;7.260;2022-12-10T11:45:23;20.00;28.40
75500;DHT22;64076;51.466;7.260;2022-12-10T11:50:50;20.00;28.40
75500;DHT22;64076;51.466;7.260;2022-12-10T11:56:07;20.00;28.40
75500;DHT22;64076;51.466;7.260;2022-12-10T12:07:23;20.00;28.50
75500;DHT22;64076;51.466;7.260;2022-12-10T12:11:13;20.00;28.50
75500;DHT22;64076;51.466;7.260;2022-12-10T12:13:26;20.00;28.50
75500;DHT22;64076;51.466;7.260;2022-12-10T12:16:02;20.00;28.60
75500;DHT22;64076;51.466;7.260;2022-12-10T12:18:48;20.00;28.50
75500;DHT22;64076;51.466;7.260;2022-12-10T12:21:16;20.00;28.60
75500;DHT22;64076;51.466;7.260;2022-12-10T12:26:21;20.00;28.60
75500;DHT22;64076;51.466;7.260;2022-12-10T12:31:59;20.00;28.60
75500;DHT22;64076;51.466;7.260;2022-12-10T12:37:16;20.00;28.60
75500;DHT22;64076;51.466;7.260;2022-12-10T12:39:48;20.00;28.50
75500;DHT22;64076;51.466;7.260;2022-12-10T12:42:36;20.00;28.60
75500;DHT22;64076;51.466;7.260;2022-12-10T12:45:34;20.00;28.50
75500;DHT22;64076;51.466;7.260;2022-12-10T12:48:09;20.00;28.50
75500;DHT22;64076;51.466;7.260;2022-12-10T12:50:46;20.00;28.50
75500;DHT22;64076;51.466;7.260;2022-12-10T12:53:16;20.00;28.60
75500;DHT22;64076;51.466;7.260;2022-12-10T13:01:20;20.00;28.50
75500;DHT22;64076;51.466;7.260;2022-12-10T13:03:49;20.00;28.50
75500;DHT22;64076;51.466;7.260;2022-12-10T13:06:19;20.00;28.50
75500;DHT22;64076;51.466;7.260;2022-12-10T13:09:33;20.00;28.40
75500;DHT22;64076;51.466;7.260;2022-12-10T13:11:35;20.00;28.40
75500;DHT22;64076;51.466;7.260;2022-12-10T13:46:22;20.10;28.40
75500;DHT22;64076;51.466;7.260;2022-12-10T13:48:50;20.00;28.40
75500;DHT22;64076;51.466;7.260;2022-12-10T13:51:23;20.00;28.30
75500;DHT22;64076;51.466;7.260;2022-12-10T13:54:00;20.10;28.40
75500;DHT22;64076;51.466;7.260;2022-12-10T13:56:46;20.10;28.30
75500;DHT22;64076;51.466;7.260;2022-12-10T13:59:41;20.00;28.40
75500;DHT22;64076;51.466;7.260;2022-12-10T14:02:44;20.10;28.30
75500;DHT22;64076;51.466;7.260;2022-12-10T14:05:39;20.10;28.30
75500;DHT22;64076;51.466;7.260;2022-12-10T14:08:13;20.10;28.40
75500;DHT22;64076;51.466;7.260;2022-12-10T14:10:42;20.10;28.40
75500;DHT22;64076;51.466;7.260;2022-12-10T14:13:12;20.10;28.40
75500;DHT22;64076;51.466;7.260;2022-12-10T14:15:38;20.10;28.40
75500;DHT22;64076;51.466;7.260;2022-12-10T14:18:12;20.10;28.40
75500;DHT22;64076;51.466;7.260;2022-12-10T14:20:43;20.10;28.40
75500;DHT22;64076;51.466;7.260;2022-12-10T14:23:28;20.10;28.40
75500;DHT22;64076;51.466;7.260;2022-12-10T14:26:15;20.10;28.40
75500;DHT22;64076;51.466;7.260;2022-12-10T14:28:43;20.10;28.40
75500;DHT22;64076;51.466;7.260;2022-12-10T14:31:25;20.00;28.50
75500;DHT22;64076;51.466;7.260;2022-12-10T14:33:52;20.10;28.50
75500;DHT22;64076;51.466;7.260;2022-12-10T14:36:37;20.10;28.50
75500;DHT22;64076;51.466;7.260;2022-12-10T14:39:13;20.10;28.50
75500;DHT22;64076;51.466;7.260;2022-12-10T14:41:39;20.00;28.50
75500;DHT22;64076;51.466;7.260;2022-12-10T14:44:05;20.10;28.50
75500;DHT22;64076;51.466;7.260;2022-12-10T14:46:31;20.10;28.50
75500;DHT22;64076;51.466;7.260;2022-12-10T14:48:58;20.10;28.50
75500;DHT22;64076;51.466;7.260;2022-12-10T14:51:26;20.10;28.50
75500;DHT22;64076;51.466;7.260;2022-12-10T14:53:53;20.10;28.50
75500;DHT22;64076;51.466;7.260;2022-12-10T14:56:26;20.10;28.50
75500;DHT22;64076;51.466;7.260;2022-12-10T14:59:09;20.10;28.50
75500;DHT22;64076;51.466;7.260;2022-12-10T15:01:40;20.10;28.50
75500;DHT22;64076;51.466;7.260;2022-12-10T15:04:21;20.10;28.60
75500;DHT22;64076;51.466;7.260;2022-12-10T15:06:47;20.10;28.60
75500;DHT22;64076;51.466;7.260;2022-12-10T15:09:22;20.10;28.60
75500;DHT22;64076;51.466;7.260;2022-12-10T15:11:57;20.10;28.60
75500;DHT22;64076;51.466;7.260;2022-12-10T15:14:24;20.10;28.60
75500;DHT22;64076;51.466;7.260;2022-12-10T15:16:51;20.10;28.60
75500;DHT22;64076;51.466;7.260;2022-12-10T15:19:20;20.10;28.60
75500;DHT22;64076;51.466;7.260;2022-12-10T15:21:50;20.10;28.60
75500;DHT22;64076;51.466;7.260;2022-12-10T15:24:26;20.10;28.60
75500;DHT22;64076;51.466;7.260;2022-12-10T15:26:52;20.10;28.60
75500;DHT22;64076;51.466;7.260;2022-12-10T15:31:48;20.10;28.60
75500;DHT22;64076;51.466;7.260;2022-12-10T15:34:14;20.10;28.70
75500;DHT22;64076;51.466;7.260;2022-12-10T15:36:42;20.10;28.70
75500;DHT22;64076;51.466;7.260;2022-12-10T15:41:44;20.10;28.60
75500;DHT22;64076;51.466;7.260;2022-12-10T15:49:35;20.10;28.70
75500;DHT22;64076;51.466;7.260;2022-12-10T15:52:01;20.10;28.70
75500;DHT22;64076;51.466;7.260;2022-12-10T15:54:32;20.10;28.70
75500;DHT22;64076;51.466;7.260;2022-12-10T15:56:57;20.10;28.70
75500;DHT22;64076;51.466;7.260;2022-12-10T15:59:23;20.10;28.70
75500;DHT22;64076;51.466;7.260;2022-12-10T16:01:49;20.10;28.70
75500;DHT22;64076;51.466;7.260;2022-12-10T16:04:17;20.10;28.70
75500;DHT22;64076;51.466;7.260;2022-12-10T16:06:43;20.10;28.70
75500;DHT22;64076;51.466;7.260;2022-12-10T16:09:09;20.10;28.70
75500;DHT22;64076;51.466;7.260;2022-12-10T16:11:35;20.10;28.80
75500;DHT22;64076;51.466;7.260;2022-12-10T16:14:01;20.10;28.70
75500;DHT22;64076;51.466;7.260;2022-12-10T16:16:27;20.20;28.70
75500;DHT22;64076;51.466;7.260;2022-12-10T16:18:53;20.10;28.70
75500;DHT22;64076;51.466;7.260;2022-12-10T16:21:19;20.10;28.70
75500;DHT22;64076;51.466;7.260;2022-12-10T16:23:44;20.10;28.80
75500;DHT22;64076;51.466;7.260;2022-12-10T16:26:15;20.10;28.80
75500;DHT22;64076;51.466;7.260;2022-12-10T16:28:42;20.10;28.80
75500;DHT22;64076;51.466;7.260;2022-12-10T16:31:10;20.00;28.90
75500;DHT22;64076;51.466;7.260;2022-12-10T16:33:36;20.00;28.90
75500;DHT22;64076;51.466;7.260;2022-12-10T16:36:02;20.00;28.90
75500;DHT22;64076;51.466;7.260;2022-12-10T16:38:27;20.00;29.00
75500;DHT22;64076;51.466;7.260;2022-12-10T16:40:53;20.00;29.00
75500;DHT22;64076;51.466;7.260;2022-12-10T16:43:21;19.90;29.00
75500;DHT22;64076;51.466;7.260;2022-12-10T16:45:47;19.90;29.10
75500;DHT22;64076;51.466;7.260;2022-12-10T16:48:16;19.90;29.10
75500;DHT22;64076;51.466;7.260;2022-12-10T16:50:42;19.90;29.10
75500;DHT22;64076;51.466;7.260;2022-12-10T16:53:26;19.90;29.10
75500;DHT22;64076;51.466;7.260;2022-12-10T16:55:52;19.80;29.20
75500;DHT22;64076;51.466;7.260;2022-12-10T16:58:19;19.80;29.20
75500;DHT22;64076;51.466;7.260;2022-12-10T17:00:48;19.80;29.20
75500;DHT22;64076;51.466;7.260;2022-12-10T17:03:16;19.80;29.20
75500;DHT22;64076;51.466;7.260;2022-12-10T17:05:49;19.80;29.20
75500;DHT22;64076;51.466;7.260;2022-12-10T17:08:16;19.80;29.30
75500;DHT22;64076;51.466;7.260;2022-12-10T17:10:41;19.80;29.30
75500;DHT22;64076;51.466;7.260;2022-12-10T17:13:26;19.80;29.30
75500;DHT22;64076;51.466;7.260;2022-12-10T17:15:51;19.80;29.30
75500;DHT22;64076;51.466;7.260;2022-12-10T17:18:18;19.70;29.30
75500;DHT22;64076;51.466;7.260;2022-12-10T17:20:46;19.70;29.30
75500;DHT22;64076;51.466;7.260;2022-12-10T17:23:12;19.70;29.40
75500;DHT22;64076;51.466;7.260;2022-12-10T17:25:41;19.70;29.40
75500;DHT22;64076;51.466;7.260;2022-12-10T17:28:16;19.70;29.40